createdAt,value
2019-05-23T00:00:20.772Z,1004.12
2019-05-23T00:01:20.755Z,1004.11
2019-05-23T00:02:20.751Z,1004.13
2019-05-23T00:03:20.736Z,1004.13
2019-05-23T00:04:20.724Z,1004.14
2019-05-23T00:05:20.753Z,1004.15
2019-05-23T00:06:20.737Z,1004.12
2019-05-23T00:07:20.692Z,1004.13
2019-05-23T00:08:20.685Z,1004.09
2019-05-23T00:09:20.670Z,1004.08
2019-05-23T00:10:20.679Z,1004.09
2019-05-23T00:11:20.648Z,1004.05
2019-05-23T00:12:20.638Z,1004.08
2019-05-23T00:13:20.627Z,1004.08
2019-05-23T00:14:20.615Z,1004.08
2019-05-23T00:15:20.606Z,1004.05
2019-05-23T00:16:20.594Z,1004.04
2019-05-23T00:17:20.582Z,1004.04
2019-05-23T00:18:21.260Z,1004.03
2019-05-23T00:19:20.561Z,1004.03
2019-05-23T00:20:20.556Z,1004.01
2019-05-23T00:21:20.539Z,1004.03
2019-05-23T00:22:20.530Z,1004.04
2019-05-23T00:23:20.519Z,1004.03
2019-05-23T00:24:20.509Z,1004.02
2019-05-23T00:25:20.496Z,1004.02
2019-05-23T00:26:20.484Z,1004.00
2019-05-23T00:27:20.477Z,1003.98
2019-05-23T00:28:20.467Z,1004.00
2019-05-23T00:29:20.451Z,1004.00
2019-05-23T00:30:20.440Z,1003.99
2019-05-23T00:31:20.430Z,1003.98
2019-05-23T00:32:20.419Z,1003.98
2019-05-23T00:33:20.408Z,1003.95
2019-05-23T00:34:20.397Z,1003.94
2019-05-23T00:35:20.386Z,1003.93
2019-05-23T00:36:20.376Z,1003.90
2019-05-23T00:37:20.367Z,1003.91
2019-05-23T00:38:20.354Z,1003.89
2019-05-23T00:39:20.347Z,1003.90
2019-05-23T00:40:20.332Z,1003.86
2019-05-23T00:41:20.373Z,1003.90
2019-05-23T00:42:20.312Z,1003.89
2019-05-23T00:43:20.300Z,1003.86
2019-05-23T00:44:20.291Z,1003.88
2019-05-23T00:45:20.278Z,1003.88
2019-05-23T00:46:20.266Z,1003.87
2019-05-23T00:47:20.258Z,1003.86
2019-05-23T00:48:20.244Z,1003.83
2019-05-23T00:49:20.234Z,1003.84
2019-05-23T00:50:20.224Z,1003.82
2019-05-23T00:51:20.211Z,1003.79
2019-05-23T00:52:20.200Z,1003.74
2019-05-23T00:53:20.187Z,1003.75
2019-05-23T00:54:20.184Z,1003.77
2019-05-23T00:55:20.166Z,1003.80
2019-05-23T00:56:20.155Z,1003.72
2019-05-23T00:57:20.144Z,1003.76
2019-05-23T00:58:20.133Z,1003.73
2019-05-23T00:59:26.920Z,1003.72
2019-05-23T01:00:20.115Z,1003.72
2019-05-23T01:01:20.142Z,1003.73
2019-05-23T01:02:20.088Z,1003.72
2019-05-23T01:03:20.079Z,1003.74
2019-05-23T01:04:20.065Z,1003.75
2019-05-23T01:05:20.054Z,1003.76
2019-05-23T01:06:20.044Z,1003.75
2019-05-23T01:07:20.038Z,1003.77
2019-05-23T01:08:20.021Z,1003.76
2019-05-23T01:09:20.010Z,1003.71
2019-05-23T01:10:19.999Z,1003.73
2019-05-23T01:11:19.987Z,1003.69
2019-05-23T01:12:19.983Z,1003.72
2019-05-23T01:13:19.964Z,1003.71
2019-05-23T01:14:19.960Z,1003.67
2019-05-23T01:15:19.943Z,1003.67
2019-05-23T01:16:19.932Z,1003.69
2019-05-23T01:17:19.924Z,1003.67
2019-05-23T01:18:19.909Z,1003.64
2019-05-23T01:19:19.898Z,1003.65
2019-05-23T01:20:19.887Z,1003.68
2019-05-23T01:21:19.876Z,1003.65
2019-05-23T01:22:19.965Z,1003.67
2019-05-23T01:23:19.858Z,1003.70
2019-05-23T01:24:19.847Z,1003.67
2019-05-23T01:25:19.831Z,1003.66
2019-05-23T01:26:19.820Z,1003.65
2019-05-23T01:27:19.809Z,1003.65
2019-05-23T01:28:19.798Z,1003.68
2019-05-23T01:29:19.787Z,1003.68
2019-05-23T01:30:19.775Z,1003.70
2019-05-23T01:31:19.816Z,1003.66
2019-05-23T01:32:19.755Z,1003.64
2019-05-23T01:33:19.741Z,1003.65
2019-05-23T01:34:19.734Z,1003.66
2019-05-23T01:35:19.719Z,1003.65
2019-05-23T01:36:19.709Z,1003.63
2019-05-23T01:37:19.697Z,1003.61
2019-05-23T01:38:19.685Z,1003.61
2019-05-23T01:39:19.674Z,1003.59
2019-05-23T01:40:19.664Z,1003.59
2019-05-23T01:41:19.660Z,1003.54
2019-05-23T01:42:19.642Z,1003.55
2019-05-23T01:43:19.629Z,1003.55
2019-05-23T01:44:19.619Z,1003.54
2019-05-23T01:45:19.606Z,1003.54
2019-05-23T01:46:19.595Z,1003.53
2019-05-23T01:47:19.584Z,1003.52
2019-05-23T01:48:19.573Z,1003.53
2019-05-23T01:49:19.562Z,1003.51
2019-05-23T01:50:19.551Z,1003.53
2019-05-23T01:51:19.538Z,1003.50
2019-05-23T01:52:19.529Z,1003.50
2019-05-23T01:53:19.523Z,1003.50
2019-05-23T01:54:19.522Z,1003.52
2019-05-23T01:55:19.493Z,1003.49
2019-05-23T01:56:19.484Z,1003.46
2019-05-23T01:57:19.472Z,1003.45
2019-05-23T01:58:19.465Z,1003.47
2019-05-23T01:59:19.449Z,1003.44
2019-05-23T02:00:19.446Z,1003.43
2019-05-23T02:01:19.432Z,1003.46
2019-05-23T02:02:19.417Z,1003.40
2019-05-23T02:03:19.408Z,1003.45
2019-05-23T02:04:19.394Z,1003.42
2019-05-23T02:05:19.382Z,1003.45
2019-05-23T02:06:19.372Z,1003.41
2019-05-23T02:07:19.357Z,1003.40
2019-05-23T02:08:19.345Z,1003.42
2019-05-23T02:09:19.346Z,1003.42
2019-05-23T02:10:19.325Z,1003.42
2019-05-23T02:11:19.315Z,1003.42
2019-05-23T02:12:19.300Z,1003.40
2019-05-23T02:13:19.287Z,1003.39
2019-05-23T02:14:19.276Z,1003.39
2019-05-23T02:15:19.264Z,1003.40
2019-05-23T02:16:19.261Z,1003.41
2019-05-23T02:17:19.241Z,1003.36
2019-05-23T02:18:19.229Z,1003.40
2019-05-23T02:19:19.218Z,1003.34
2019-05-23T02:20:19.211Z,1003.34
2019-05-23T02:21:19.195Z,1003.35
2019-05-23T02:22:19.192Z,1003.37
2019-05-23T02:23:19.173Z,1003.35
2019-05-23T02:24:19.166Z,1003.37
2019-05-23T02:25:19.152Z,1003.34
2019-05-23T02:26:19.136Z,1003.33
2019-05-23T02:27:19.125Z,1003.27
2019-05-23T02:28:19.113Z,1003.31
2019-05-23T02:29:19.103Z,1003.28
2019-05-23T02:30:33.195Z,1003.30
2019-05-23T02:31:19.078Z,1003.29
2019-05-23T02:32:19.069Z,1003.29
2019-05-23T02:33:19.054Z,1003.30
2019-05-23T02:34:19.047Z,1003.25
2019-05-23T02:35:19.032Z,1003.27
2019-05-23T02:36:19.021Z,1003.24
2019-05-23T02:37:19.008Z,1003.25
2019-05-23T02:38:19.002Z,1003.22
2019-05-23T02:39:18.996Z,1003.24
2019-05-23T02:40:18.973Z,1003.24
2019-05-23T02:41:18.959Z,1003.19
2019-05-23T02:42:18.950Z,1003.20
2019-05-23T02:43:18.940Z,1003.19
2019-05-23T02:44:18.927Z,1003.19
2019-05-23T02:45:18.919Z,1003.15
2019-05-23T02:46:18.903Z,1003.16
2019-05-23T02:47:18.890Z,1003.14
2019-05-23T02:48:18.901Z,1003.14
2019-05-23T02:49:18.865Z,1003.12
2019-05-23T02:50:18.853Z,1003.13
2019-05-23T02:51:18.845Z,1003.13
2019-05-23T02:52:18.833Z,1003.14
2019-05-23T02:53:18.823Z,1003.14
2019-05-23T02:54:18.807Z,1003.15
2019-05-23T02:55:18.794Z,1003.16
2019-05-23T02:56:18.782Z,1003.08
2019-05-23T02:57:18.801Z,1003.10
2019-05-23T02:58:18.760Z,1003.12
2019-05-23T02:59:18.748Z,1003.14
2019-05-23T03:00:18.737Z,1003.05
2019-05-23T03:01:18.723Z,1003.07
2019-05-23T03:02:18.714Z,1003.09
2019-05-23T03:03:18.699Z,1003.08
2019-05-23T03:04:18.690Z,1003.06
2019-05-23T03:05:18.675Z,1003.06
2019-05-23T03:06:18.667Z,1003.02
2019-05-23T03:07:18.652Z,1003.06
2019-05-23T03:08:18.642Z,1002.98
2019-05-23T03:09:18.627Z,1003.02
2019-05-23T03:10:18.619Z,1003.00
2019-05-23T03:11:18.612Z,1003.03
2019-05-23T03:12:18.601Z,1002.96
2019-05-23T03:13:18.579Z,1002.96
2019-05-23T03:14:18.580Z,1002.98
2019-05-23T03:15:18.557Z,1002.98
2019-05-23T03:16:18.564Z,1002.95
2019-05-23T03:17:18.536Z,1002.96
2019-05-23T03:18:18.520Z,1002.97
2019-05-23T03:19:18.508Z,1003.00
2019-05-23T03:20:18.497Z,1003.00
2019-05-23T03:21:18.487Z,1002.98
2019-05-23T03:22:18.472Z,1003.00
2019-05-23T03:23:18.474Z,1002.98
2019-05-23T03:24:18.449Z,1002.99
2019-05-23T03:25:18.436Z,1003.00
2019-05-23T03:26:18.428Z,1002.99
2019-05-23T03:27:18.415Z,1002.96
2019-05-23T03:28:18.402Z,1002.98
2019-05-23T03:29:18.389Z,1002.95
2019-05-23T03:30:18.391Z,1002.96
2019-05-23T03:31:30.685Z,1002.91
2019-05-23T03:32:18.359Z,1002.92
2019-05-23T03:33:18.452Z,1002.90
2019-05-23T03:34:18.331Z,1002.94
2019-05-23T03:35:18.321Z,1002.96
2019-05-23T03:36:18.305Z,1002.94
2019-05-23T03:37:18.294Z,1002.96
2019-05-23T03:38:18.282Z,1002.95
2019-05-23T03:39:18.270Z,1002.94
2019-05-23T03:40:18.263Z,1002.96
2019-05-23T03:41:18.246Z,1002.97
2019-05-23T03:42:18.237Z,1002.94
2019-05-23T03:43:18.224Z,1002.96
2019-05-23T03:44:18.222Z,1002.96
2019-05-23T03:45:18.197Z,1002.95
2019-05-23T03:46:18.185Z,1002.97
2019-05-23T03:47:18.174Z,1003.00
2019-05-23T03:48:18.164Z,1002.98
2019-05-23T03:49:18.149Z,1002.97
2019-05-23T03:50:18.137Z,1002.98
2019-05-23T03:51:18.126Z,1002.99
2019-05-23T03:52:18.113Z,1002.97
2019-05-23T03:53:18.102Z,1002.99
2019-05-23T03:54:18.108Z,1002.95
2019-05-23T03:55:18.077Z,1002.93
2019-05-23T03:56:18.070Z,1002.94
2019-05-23T03:57:18.054Z,1002.89
2019-05-23T03:58:18.043Z,1002.86
2019-05-23T03:59:18.031Z,1002.91
2019-05-23T04:00:18.019Z,1002.89
2019-05-23T04:01:18.010Z,1002.91
2019-05-23T04:02:17.994Z,1002.91
2019-05-23T04:03:17.983Z,1002.89
2019-05-23T04:04:17.974Z,1002.91
2019-05-23T04:05:17.959Z,1002.90
2019-05-23T04:06:17.947Z,1002.88
2019-05-23T04:07:17.936Z,1002.89
2019-05-23T04:08:17.924Z,1002.90
2019-05-23T04:09:17.922Z,1002.91
2019-05-23T04:10:17.900Z,1002.93
2019-05-23T04:11:17.888Z,1002.93
2019-05-23T04:12:17.879Z,1002.96
2019-05-23T04:13:17.868Z,1002.96
2019-05-23T04:14:17.857Z,1002.96
2019-05-23T04:15:17.841Z,1002.92
2019-05-23T04:16:17.836Z,1002.93
2019-05-23T04:17:17.825Z,1002.94
2019-05-23T04:18:17.807Z,1002.93
2019-05-23T04:19:17.810Z,1002.94
2019-05-23T04:20:17.782Z,1002.91
2019-05-23T04:21:17.771Z,1002.95
2019-05-23T04:22:17.770Z,1002.92
2019-05-23T04:23:17.751Z,1002.90
2019-05-23T04:24:17.737Z,1002.89
2019-05-23T04:25:17.724Z,1002.86
2019-05-23T04:26:17.714Z,1002.89
2019-05-23T04:27:17.706Z,1002.88
2019-05-23T04:28:17.690Z,1002.88
2019-05-23T04:29:17.796Z,1002.92
2019-05-23T04:30:17.666Z,1002.94
2019-05-23T04:31:17.655Z,1002.92
2019-05-23T04:32:17.644Z,1002.93
2019-05-23T04:33:17.632Z,1002.89
2019-05-23T04:34:17.620Z,1002.87
2019-05-23T04:35:17.609Z,1002.91
2019-05-23T04:36:17.598Z,1002.90
2019-05-23T04:37:17.598Z,1002.86
2019-05-23T04:38:17.575Z,1002.89
2019-05-23T04:39:17.563Z,1002.84
2019-05-23T04:40:17.552Z,1002.86
2019-05-23T04:41:17.553Z,1002.77
2019-05-23T04:42:17.528Z,1002.82
2019-05-23T04:43:17.523Z,1002.81
2019-05-23T04:44:17.509Z,1002.76
2019-05-23T04:45:17.492Z,1002.76
2019-05-23T04:46:17.482Z,1002.77
2019-05-23T04:47:17.471Z,1002.79
2019-05-23T04:48:17.464Z,1002.78
2019-05-23T04:49:17.448Z,1002.78
2019-05-23T04:50:17.445Z,1002.78
2019-05-23T04:51:17.438Z,1002.77
2019-05-23T04:52:17.414Z,1002.74
2019-05-23T04:53:17.403Z,1002.80
2019-05-23T04:54:17.394Z,1002.74
2019-05-23T04:55:17.380Z,1002.75
2019-05-23T04:56:17.386Z,1002.76
2019-05-23T04:57:17.355Z,1002.79
2019-05-23T04:58:17.348Z,1002.81
2019-05-23T04:59:17.333Z,1002.79
2019-05-23T05:00:17.323Z,1002.78
2019-05-23T05:01:17.311Z,1002.82
2019-05-23T05:02:26.426Z,1002.82
2019-05-23T05:03:18.588Z,1002.81
2019-05-23T05:04:17.282Z,1002.81
2019-05-23T05:05:17.266Z,1002.80
2019-05-23T05:06:17.257Z,1002.81
2019-05-23T05:07:17.246Z,1002.81
2019-05-23T05:08:17.245Z,1002.81
2019-05-23T05:09:17.221Z,1002.81
2019-05-23T05:10:17.219Z,1002.78
2019-05-23T05:11:17.203Z,1002.82
2019-05-23T05:12:17.209Z,1002.82
2019-05-23T05:13:17.179Z,1002.80
2019-05-23T05:14:17.166Z,1002.83
2019-05-23T05:15:17.157Z,1002.83
2019-05-23T05:16:17.146Z,1002.83
2019-05-23T05:17:17.141Z,1002.80
2019-05-23T05:18:17.126Z,1002.83
2019-05-23T05:19:17.113Z,1002.85
2019-05-23T05:20:17.102Z,1002.85
2019-05-23T05:21:17.092Z,1002.84
2019-05-23T05:22:17.081Z,1002.82
2019-05-23T05:23:17.069Z,1002.84
2019-05-23T05:24:17.058Z,1002.86
2019-05-23T05:25:17.048Z,1002.90
2019-05-23T05:26:17.036Z,1002.84
2019-05-23T05:27:17.030Z,1002.85
2019-05-23T05:28:17.017Z,1002.89
2019-05-23T05:29:17.005Z,1002.89
2019-05-23T05:30:17.029Z,1002.88
2019-05-23T05:31:16.982Z,1002.90
2019-05-23T05:32:16.972Z,1002.90
2019-05-23T05:33:16.962Z,1002.88
2019-05-23T05:34:16.951Z,1002.88
2019-05-23T05:35:17.025Z,1002.91
2019-05-23T05:36:16.940Z,1002.94
2019-05-23T05:37:16.929Z,1002.95
2019-05-23T05:38:16.910Z,1002.97
2019-05-23T05:39:16.901Z,1002.99
2019-05-23T05:40:16.902Z,1003.01
2019-05-23T05:41:16.885Z,1002.99
2019-05-23T05:42:16.870Z,1002.98
2019-05-23T05:43:16.859Z,1002.97
2019-05-23T05:44:16.850Z,1002.97
2019-05-23T05:45:16.838Z,1002.97
2019-05-23T05:46:16.829Z,1002.99
2019-05-23T05:47:16.824Z,1003.01
2019-05-23T05:48:16.819Z,1003.00
2019-05-23T05:49:16.799Z,1003.05
2019-05-23T05:50:16.792Z,1003.01
2019-05-23T05:51:16.781Z,1003.03
2019-05-23T05:52:16.779Z,1003.05
2019-05-23T05:53:16.761Z,1003.03
2019-05-23T05:54:16.751Z,1003.04
2019-05-23T05:55:16.741Z,1003.04
2019-05-23T05:56:16.775Z,1003.10
2019-05-23T05:57:16.722Z,1003.07
2019-05-23T05:58:16.714Z,1003.08
2019-05-23T05:59:16.705Z,1003.11
2019-05-23T06:00:16.696Z,1003.14
2019-05-23T06:01:32.721Z,1003.17
2019-05-23T06:02:16.678Z,1003.12
2019-05-23T06:03:16.667Z,1003.20
2019-05-23T06:04:16.660Z,1003.19
2019-05-23T06:05:16.648Z,1003.17
2019-05-23T06:06:16.654Z,1003.20
2019-05-23T06:07:16.639Z,1003.19
2019-05-23T06:08:16.621Z,1003.19
2019-05-23T06:09:16.611Z,1003.19
2019-05-23T06:10:16.603Z,1003.17
2019-05-23T06:11:16.594Z,1003.18
2019-05-23T06:12:16.592Z,1003.21
2019-05-23T06:13:16.578Z,1003.18
2019-05-23T06:14:16.568Z,1003.24
2019-05-23T06:15:16.560Z,1003.22
2019-05-23T06:16:16.553Z,1003.25
2019-05-23T06:17:16.542Z,1003.25
2019-05-23T06:18:16.533Z,1003.24
2019-05-23T06:19:16.524Z,1003.26
2019-05-23T06:20:16.518Z,1003.25
2019-05-23T06:21:16.507Z,1003.27
2019-05-23T06:22:16.498Z,1003.27
2019-05-23T06:23:16.491Z,1003.27
2019-05-23T06:24:16.484Z,1003.27
2019-05-23T06:25:16.473Z,1003.30
2019-05-23T06:26:16.465Z,1003.28
2019-05-23T06:27:16.457Z,1003.27
2019-05-23T06:28:16.450Z,1003.31
2019-05-23T06:29:16.440Z,1003.26
2019-05-23T06:30:16.432Z,1003.32
2019-05-23T06:31:16.426Z,1003.35
2019-05-23T06:32:16.425Z,1003.33
2019-05-23T06:33:23.255Z,1003.34
2019-05-23T06:34:16.401Z,1003.35
2019-05-23T06:35:16.393Z,1003.38
2019-05-23T06:36:16.384Z,1003.35
2019-05-23T06:37:16.391Z,1003.31
2019-05-23T06:38:16.535Z,1003.36
2019-05-23T06:39:16.509Z,1003.31
2019-05-23T06:40:16.353Z,1003.31
2019-05-23T06:41:16.347Z,1003.33
2019-05-23T06:42:16.336Z,1003.31
2019-05-23T06:43:16.329Z,1003.28
2019-05-23T06:44:16.330Z,1003.26
2019-05-23T06:45:16.316Z,1003.26
2019-05-23T06:46:16.310Z,1003.30
2019-05-23T06:47:16.301Z,1003.25
2019-05-23T06:48:16.302Z,1003.26
2019-05-23T06:49:16.285Z,1003.26
2019-05-23T06:50:16.279Z,1003.26
2019-05-23T06:51:16.272Z,1003.28
2019-05-23T06:52:16.266Z,1003.30
2019-05-23T06:53:16.265Z,1003.29
2019-05-23T06:54:16.252Z,1003.28
2019-05-23T06:55:16.299Z,1003.33
2019-05-23T06:56:16.247Z,1003.33
2019-05-23T06:57:16.235Z,1003.32
2019-05-23T06:58:16.249Z,1003.36
2019-05-23T06:59:16.227Z,1003.37
2019-05-23T07:00:16.223Z,1003.34
2019-05-23T07:01:16.213Z,1003.30
2019-05-23T07:02:16.208Z,1003.30
2019-05-23T07:03:16.204Z,1003.34
2019-05-23T07:04:16.200Z,1003.34
2019-05-23T07:05:16.197Z,1003.32
2019-05-23T07:06:16.194Z,1003.35
2019-05-23T07:07:16.191Z,1003.38
2019-05-23T07:08:16.188Z,1003.37
2019-05-23T07:09:16.184Z,1003.41
2019-05-23T07:10:16.184Z,1003.36
2019-05-23T07:11:16.252Z,1003.42
2019-05-23T07:12:16.178Z,1003.39
2019-05-23T07:13:16.175Z,1003.36
2019-05-23T07:14:16.172Z,1003.37
2019-05-23T07:15:16.172Z,1003.37
2019-05-23T07:16:16.175Z,1003.36
2019-05-23T07:17:16.169Z,1003.32
2019-05-23T07:18:16.184Z,1003.35
2019-05-23T07:19:16.188Z,1003.39
2019-05-23T07:20:16.172Z,1003.42
2019-05-23T07:21:16.171Z,1003.37
2019-05-23T07:22:18.960Z,1003.41
2019-05-23T07:23:16.177Z,1003.40
2019-05-23T07:24:16.170Z,1003.41
2019-05-23T07:25:16.171Z,1003.38
2019-05-23T07:26:16.169Z,1003.43
2019-05-23T07:27:16.172Z,1003.45
2019-05-23T07:28:16.171Z,1003.44
2019-05-23T07:29:16.179Z,1003.40
2019-05-23T07:30:16.173Z,1003.41
2019-05-23T07:31:16.174Z,1003.42
2019-05-23T07:32:16.194Z,1003.42
2019-05-23T07:33:16.218Z,1003.46
2019-05-23T07:34:16.195Z,1003.38
2019-05-23T07:35:16.178Z,1003.43
2019-05-23T07:36:16.189Z,1003.39
2019-05-23T07:37:16.180Z,1003.43
2019-05-23T07:38:16.182Z,1003.38
2019-05-23T07:39:16.182Z,1003.41
2019-05-23T07:40:16.192Z,1003.40
2019-05-23T07:41:16.212Z,1003.40
2019-05-23T07:42:16.185Z,1003.42
2019-05-23T07:43:16.187Z,1003.44
2019-05-23T07:44:16.196Z,1003.42
2019-05-23T07:45:16.189Z,1003.43
2019-05-23T07:46:16.192Z,1003.48
2019-05-23T07:47:16.191Z,1003.44
2019-05-23T07:48:16.202Z,1003.40
2019-05-23T07:49:16.201Z,1003.41
2019-05-23T07:50:16.193Z,1003.44
2019-05-23T07:51:16.193Z,1003.43
2019-05-23T07:52:16.210Z,1003.43
2019-05-23T07:53:16.207Z,1003.37
2019-05-23T07:54:16.240Z,1003.39
2019-05-23T07:55:16.197Z,1003.40
2019-05-23T07:56:16.199Z,1003.37
2019-05-23T07:57:16.201Z,1003.40
2019-05-23T07:58:16.208Z,1003.39
2019-05-23T07:59:16.204Z,1003.37
2019-05-23T08:00:16.207Z,1003.41
2019-05-23T08:01:16.209Z,1003.44
2019-05-23T08:02:16.210Z,1003.39
2019-05-23T08:03:16.213Z,1003.40
2019-05-23T08:04:21.942Z,1003.38
2019-05-23T08:05:16.246Z,1003.44
2019-05-23T08:06:16.223Z,1003.38
2019-05-23T08:07:16.226Z,1003.40
2019-05-23T08:08:16.234Z,1003.36
2019-05-23T08:09:16.229Z,1003.37
2019-05-23T08:10:32.655Z,1003.41
2019-05-23T08:11:16.255Z,1003.37
2019-05-23T08:12:16.241Z,1003.38
2019-05-23T08:13:16.242Z,1003.36
2019-05-23T08:14:16.247Z,1003.37
2019-05-23T08:15:16.253Z,1003.36
2019-05-23T08:16:16.270Z,1003.38
2019-05-23T08:17:16.268Z,1003.36
2019-05-23T08:18:16.262Z,1003.31
2019-05-23T08:19:19.342Z,1003.34
2019-05-23T08:20:16.275Z,1003.37
2019-05-23T08:21:16.275Z,1003.34
2019-05-23T08:22:16.280Z,1003.35
2019-05-23T08:23:16.287Z,1003.39
2019-05-23T08:24:16.292Z,1003.39
2019-05-23T08:25:16.338Z,1003.39
2019-05-23T08:26:16.301Z,1003.40
2019-05-23T08:27:16.306Z,1003.49
2019-05-23T08:28:16.308Z,1003.36
2019-05-23T08:29:28.076Z,1003.38
2019-05-23T08:30:16.318Z,1003.36
2019-05-23T08:31:16.323Z,1003.38
2019-05-23T08:32:16.328Z,1003.34
2019-05-23T08:33:16.369Z,1003.39
2019-05-23T08:34:16.335Z,1003.35
2019-05-23T08:35:18.093Z,1003.33
2019-05-23T08:36:16.344Z,1003.35
2019-05-23T08:37:16.348Z,1003.36
2019-05-23T08:38:16.353Z,1003.37
2019-05-23T08:39:16.358Z,1003.42
2019-05-23T08:40:16.362Z,1003.37
2019-05-23T08:41:16.367Z,1003.29
2019-05-23T08:42:16.381Z,1003.37
2019-05-23T08:43:16.377Z,1003.35
2019-05-23T08:44:16.383Z,1003.35
2019-05-23T08:45:16.387Z,1003.29
2019-05-23T08:46:16.410Z,1003.28
2019-05-23T08:47:16.394Z,1003.34
2019-05-23T08:48:16.416Z,1003.28
2019-05-23T08:49:16.408Z,1003.29
2019-05-23T08:50:16.414Z,1003.25
2019-05-23T08:51:16.439Z,1003.26
2019-05-23T08:52:16.420Z,1003.29
2019-05-23T08:53:16.425Z,1003.26
2019-05-23T08:54:16.430Z,1003.31
2019-05-23T08:55:16.622Z,1003.26
2019-05-23T08:56:19.605Z,1003.29
2019-05-23T08:57:16.446Z,1003.27
2019-05-23T08:58:16.622Z,1003.35
2019-05-23T08:59:16.458Z,1003.33
2019-05-23T09:00:16.465Z,1003.34
2019-05-23T09:01:16.496Z,1003.32
2019-05-23T09:02:16.477Z,1003.30
2019-05-23T09:03:16.483Z,1003.30
2019-05-23T09:04:16.487Z,1003.29
2019-05-23T09:05:16.493Z,1003.29
2019-05-23T09:06:16.494Z,1003.26
2019-05-23T09:07:16.544Z,1003.24
2019-05-23T09:08:17.384Z,1003.27
2019-05-23T09:09:29.316Z,1003.19
2019-05-23T09:10:16.521Z,1003.30
2019-05-23T09:11:16.522Z,1003.27
2019-05-23T09:12:16.554Z,1003.34
2019-05-23T09:13:16.539Z,1003.31
2019-05-23T09:14:16.543Z,1003.33
2019-05-23T09:15:16.546Z,1003.33
2019-05-23T09:16:16.550Z,1003.30
2019-05-23T09:17:16.556Z,1003.28
2019-05-23T09:18:16.562Z,1003.31
2019-05-23T09:19:16.571Z,1003.33
2019-05-23T09:20:16.577Z,1003.29
2019-05-23T09:21:16.583Z,1003.29
2019-05-23T09:22:16.587Z,1003.32
2019-05-23T09:23:16.599Z,1003.33
2019-05-23T09:24:16.607Z,1003.30
2019-05-23T09:25:16.609Z,1003.26
2019-05-23T09:26:16.616Z,1003.29
2019-05-23T09:27:16.623Z,1003.30
2019-05-23T09:28:16.633Z,1003.30
2019-05-23T09:29:16.636Z,1003.30
2019-05-23T09:30:16.644Z,1003.33
2019-05-23T09:31:16.654Z,1003.36
2019-05-23T09:32:16.670Z,1003.34
2019-05-23T09:33:16.671Z,1003.32
2019-05-23T09:34:16.671Z,1003.32
2019-05-23T09:35:21.960Z,1003.31
2019-05-23T09:36:16.685Z,1003.30
2019-05-23T09:37:16.698Z,1003.31
2019-05-23T09:38:16.701Z,1003.30
2019-05-23T09:39:16.708Z,1003.29
2019-05-23T09:40:16.715Z,1003.19
2019-05-23T09:41:16.728Z,1003.28
2019-05-23T09:42:16.726Z,1003.30
2019-05-23T09:43:16.730Z,1003.25
2019-05-23T09:44:16.735Z,1003.26
2019-05-23T09:45:16.780Z,1003.20
2019-05-23T09:46:16.743Z,1003.15
2019-05-23T09:47:16.747Z,1003.21
2019-05-23T09:48:16.754Z,1003.24
2019-05-23T09:49:16.754Z,1003.25
2019-05-23T09:50:16.756Z,1003.23
2019-05-23T09:51:16.760Z,1003.24
2019-05-23T09:52:16.842Z,1003.23
2019-05-23T09:53:16.765Z,1003.20
2019-05-23T09:54:16.767Z,1003.17
2019-05-23T09:55:16.786Z,1003.17
2019-05-23T09:56:16.786Z,1003.30
2019-05-23T09:57:16.775Z,1003.30
2019-05-23T09:58:16.790Z,1003.24
2019-05-23T09:59:16.790Z,1003.23
2019-05-23T10:00:16.783Z,1003.21
2019-05-23T10:01:16.783Z,1003.25
2019-05-23T10:02:16.809Z,1003.24
2019-05-23T10:03:16.790Z,1003.24
2019-05-23T10:04:16.797Z,1003.26
2019-05-23T10:05:16.802Z,1003.17
2019-05-23T10:06:16.804Z,1003.16
2019-05-23T10:07:16.813Z,1003.25
2019-05-23T10:08:16.814Z,1003.23
2019-05-23T10:09:16.823Z,1003.21
2019-05-23T10:10:16.829Z,1003.18
2019-05-23T10:11:16.843Z,1003.21
2019-05-23T10:12:16.840Z,1003.25
2019-05-23T10:13:16.848Z,1003.25
2019-05-23T10:14:16.853Z,1003.21
2019-05-23T10:15:16.863Z,1003.23
2019-05-23T10:16:16.868Z,1003.22
2019-05-23T10:17:16.875Z,1003.21
2019-05-23T10:18:16.882Z,1003.19
2019-05-23T10:19:16.889Z,1003.20
2019-05-23T10:20:16.898Z,1003.23
2019-05-23T10:21:16.904Z,1003.19
2019-05-23T10:22:16.913Z,1003.13
2019-05-23T10:23:16.920Z,1003.09
2019-05-23T10:24:16.928Z,1003.12
2019-05-23T10:25:16.933Z,1003.11
2019-05-23T10:26:16.942Z,1003.06
2019-05-23T10:27:16.950Z,1003.00
2019-05-23T10:28:16.957Z,1003.00
2019-05-23T10:29:16.962Z,1002.95
2019-05-23T10:30:16.971Z,1002.96
2019-05-23T10:31:16.977Z,1002.97
2019-05-23T10:32:16.983Z,1002.94
2019-05-23T10:33:16.994Z,1003.03
2019-05-23T10:34:16.994Z,1003.00
2019-05-23T10:35:17.002Z,1003.04
2019-05-23T10:36:17.008Z,1002.97
2019-05-23T10:37:17.014Z,1003.02
2019-05-23T10:38:17.021Z,1003.02
2019-05-23T10:39:17.027Z,1002.97
2019-05-23T10:40:17.033Z,1002.96
2019-05-23T10:41:17.039Z,1003.00
2019-05-23T10:42:17.050Z,1002.90
2019-05-23T10:43:17.052Z,1002.98
2019-05-23T10:44:17.059Z,1002.99
2019-05-23T10:45:17.065Z,1002.95
2019-05-23T10:46:17.075Z,1002.92
2019-05-23T10:47:17.079Z,1002.92
2019-05-23T10:48:17.092Z,1002.93
2019-05-23T10:49:17.091Z,1002.88
2019-05-23T10:50:17.099Z,1002.86
2019-05-23T10:51:17.113Z,1002.82
2019-05-23T10:52:17.112Z,1002.88
2019-05-23T10:53:17.118Z,1002.82
2019-05-23T10:54:17.125Z,1002.79
2019-05-23T10:55:17.131Z,1002.81
2019-05-23T10:56:20.558Z,1002.80
2019-05-23T10:57:17.145Z,1002.71
2019-05-23T10:58:17.250Z,1002.76
2019-05-23T10:59:17.161Z,1002.75
2019-05-23T11:00:17.166Z,1002.77
2019-05-23T11:01:17.179Z,1002.75
2019-05-23T11:02:17.183Z,1002.79
2019-05-23T11:03:17.488Z,1002.76
2019-05-23T11:04:17.193Z,1002.75
2019-05-23T11:05:17.197Z,1002.75
2019-05-23T11:06:17.330Z,1002.73
2019-05-23T11:07:17.215Z,1002.79
2019-05-23T11:08:17.225Z,1002.79
2019-05-23T11:09:17.244Z,1002.72
2019-05-23T11:10:17.233Z,1002.69
2019-05-23T11:11:17.241Z,1002.66
2019-05-23T11:12:17.248Z,1002.65
2019-05-23T11:13:17.255Z,1002.68
2019-05-23T11:14:17.261Z,1002.64
2019-05-23T11:15:17.280Z,1002.62
2019-05-23T11:16:17.275Z,1002.61
2019-05-23T11:17:17.280Z,1002.61
2019-05-23T11:18:17.287Z,1002.58
2019-05-23T11:19:17.293Z,1002.59
2019-05-23T11:20:17.300Z,1002.64
2019-05-23T11:21:17.315Z,1002.60
2019-05-23T11:22:17.351Z,1002.56
2019-05-23T11:23:17.318Z,1002.60
2019-05-23T11:24:17.330Z,1002.55
2019-05-23T11:25:17.330Z,1002.56
2019-05-23T11:26:17.341Z,1002.56
2019-05-23T11:27:17.348Z,1002.53
2019-05-23T11:28:17.354Z,1002.50
2019-05-23T11:29:17.361Z,1002.53
2019-05-23T11:30:17.363Z,1002.50
2019-05-23T11:31:17.409Z,1002.52
2019-05-23T11:32:20.047Z,1002.45
2019-05-23T11:33:17.383Z,1002.49
2019-05-23T11:34:17.388Z,1002.52
2019-05-23T11:35:17.395Z,1002.48
2019-05-23T11:36:33.866Z,1002.48
2019-05-23T11:37:17.407Z,1002.50
2019-05-23T11:38:17.411Z,1002.46
2019-05-23T11:39:17.417Z,1002.54
2019-05-23T11:40:17.423Z,1002.50
2019-05-23T11:41:17.428Z,1002.44
2019-05-23T11:42:17.434Z,1002.48
2019-05-23T11:43:17.441Z,1002.40
2019-05-23T11:44:17.447Z,1002.37
2019-05-23T11:45:17.452Z,1002.46
2019-05-23T11:46:17.459Z,1002.42
2019-05-23T11:47:17.503Z,1002.48
2019-05-23T11:48:17.487Z,1002.44
2019-05-23T11:49:17.476Z,1002.43
2019-05-23T11:50:17.483Z,1002.47
2019-05-23T11:51:17.492Z,1002.46
2019-05-23T11:52:17.507Z,1002.46
2019-05-23T11:53:17.501Z,1002.45
2019-05-23T11:54:17.510Z,1002.41
2019-05-23T11:55:17.535Z,1002.44
2019-05-23T11:56:17.522Z,1002.50
2019-05-23T11:57:17.528Z,1002.40
2019-05-23T11:58:17.551Z,1002.33
2019-05-23T11:59:17.543Z,1002.38
2019-05-23T12:00:17.551Z,1002.37
2019-05-23T12:01:20.782Z,1002.37
2019-05-23T12:02:17.566Z,1002.36
2019-05-23T12:03:17.579Z,1002.34
2019-05-23T12:04:17.599Z,1002.33
2019-05-23T12:05:17.590Z,1002.37